createdAt,value
2023-11-08T00:01:10.733Z,135.55
2023-11-08T00:04:18.742Z,116.39
2023-11-08T00:07:25.215Z,115.07
2023-11-08T00:10:32.928Z,142.84
2023-11-08T00:13:44.590Z,148.26
2023-11-08T00:16:51.198Z,183.00
2023-11-08T00:19:57.478Z,176.19
2023-11-08T00:23:04.143Z,198.85
2023-11-08T00:26:10.455Z,209.59
2023-11-08T00:29:20.581Z,244.33
2023-11-08T00:32:26.429Z,210.83
2023-11-08T00:35:33.066Z,196.51
2023-11-08T00:38:40.021Z,226.93
2023-11-08T00:41:47.294Z,198.37
2023-11-08T00:44:55.910Z,158.54
2023-11-08T00:48:02.642Z,154.89
2023-11-08T00:51:09.222Z,147.22
2023-11-08T00:54:16.064Z,142.54
2023-11-08T00:57:22.419Z,149.42
2023-11-08T01:00:31.688Z,145.21
2023-11-08T01:03:37.632Z,170.01
2023-11-08T01:06:45.362Z,164.08
2023-11-08T01:09:51.210Z,155.05
2023-11-08T01:12:57.843Z,141.13
2023-11-08T01:16:07.149Z,141.05
2023-11-08T01:19:13.944Z,137.13
2023-11-08T01:22:20.538Z,140.77
2023-11-08T01:25:27.357Z,143.45
2023-11-08T01:28:33.553Z,140.70
2023-11-08T01:31:43.557Z,138.28
2023-11-08T01:34:49.420Z,135.43
2023-11-08T01:37:56.026Z,130.34
2023-11-08T01:41:01.856Z,123.63
2023-11-08T01:44:09.381Z,118.18
2023-11-08T01:47:18.406Z,115.00
2023-11-08T01:50:25.751Z,106.58
2023-11-08T01:53:32.218Z,103.10
2023-11-08T01:56:41.212Z,100.73
2023-11-08T01:59:50.020Z,97.52
2023-11-08T02:02:59.666Z,96.32
2023-11-08T02:06:08.933Z,84.43
2023-11-08T02:09:18.397Z,76.05
2023-11-08T02:12:24.498Z,70.62
2023-11-08T02:15:31.550Z,66.42
2023-11-08T02:18:40.706Z,63.54
2023-11-08T02:21:47.478Z,55.10
2023-11-08T02:24:56.056Z,47.27
2023-11-08T02:28:03.120Z,50.30
2023-11-08T02:31:09.085Z,54.72
2023-11-08T02:34:15.797Z,55.17
2023-11-08T02:37:21.680Z,57.83
2023-11-08T02:40:30.825Z,60.17
2023-11-08T02:43:37.471Z,55.70
2023-11-08T02:46:45.648Z,50.50
2023-11-08T02:49:51.680Z,54.57
2023-11-08T02:53:00.214Z,54.31
2023-11-08T02:56:10.629Z,60.44
2023-11-08T02:59:17.491Z,60.17
2023-11-08T03:02:25.571Z,58.14
2023-11-08T03:05:32.510Z,59.03
2023-11-08T03:08:39.029Z,63.07
2023-11-08T03:11:48.191Z,65.76
2023-11-08T03:14:54.045Z,68.44
2023-11-08T03:18:00.731Z,67.19
2023-11-08T03:21:07.167Z,73.10
2023-11-08T03:24:14.041Z,69.98
2023-11-08T03:27:24.014Z,70.40
2023-11-08T03:30:30.731Z,71.21
2023-11-08T03:33:37.145Z,68.84
2023-11-08T03:36:44.222Z,70.39
2023-11-08T03:39:50.409Z,73.19
2023-11-08T03:42:59.575Z,74.35
2023-11-08T03:46:05.405Z,76.40
2023-11-08T03:49:12.163Z,80.20
2023-11-08T03:52:18.170Z,82.16
2023-11-08T03:55:25.064Z,74.52
2023-11-08T03:58:33.474Z,73.68
2023-11-08T04:01:40.080Z,73.73
2023-11-08T04:04:46.552Z,74.81
2023-11-08T04:07:53.213Z,74.95
2023-11-08T04:10:59.147Z,78.31
2023-11-08T04:14:08.428Z,80.03
2023-11-08T04:17:16.740Z,75.15
2023-11-08T04:20:24.589Z,73.90
2023-11-08T04:23:31.193Z,77.05
2023-11-08T04:26:37.894Z,80.61
2023-11-08T04:29:46.478Z,86.07
2023-11-08T04:32:53.352Z,89.85
2023-11-08T04:36:01.922Z,85.63
2023-11-08T04:39:09.675Z,88.01
2023-11-08T04:42:15.508Z,96.14
2023-11-08T04:45:24.968Z,95.95
2023-11-08T04:48:30.806Z,93.68
2023-11-08T04:51:37.456Z,91.90
2023-11-08T04:54:51.607Z,98.54
2023-11-08T04:58:01.025Z,100.09
2023-11-08T05:01:09.618Z,98.12
2023-11-08T05:04:16.306Z,107.56
2023-11-08T05:07:22.606Z,97.52
2023-11-08T05:10:29.347Z,92.41
2023-11-08T05:13:40.024Z,90.80
2023-11-08T05:16:49.450Z,92.09
2023-11-08T05:19:55.353Z,93.44
2023-11-08T05:23:02.014Z,91.25
2023-11-08T05:26:07.913Z,88.27
2023-11-08T05:29:14.525Z,94.64
2023-11-08T05:32:24.620Z,89.92
2023-11-08T05:35:31.254Z,90.11
2023-11-08T05:38:38.858Z,89.39
2023-11-08T05:41:50.110Z,94.19
2023-11-08T05:44:59.472Z,96.45
2023-11-08T05:48:09.329Z,101.22
2023-11-08T05:51:15.521Z,98.18
2023-11-08T05:54:22.105Z,100.72
2023-11-08T05:57:30.666Z,101.76
2023-11-08T06:00:37.604Z,96.65
2023-11-08T06:03:46.551Z,102.65
2023-11-08T06:06:53.550Z,105.94
2023-11-08T06:10:01.970Z,111.11
2023-11-08T06:13:10.799Z,112.45
2023-11-08T06:16:17.403Z,233.69
2023-11-08T06:19:26.734Z,98.01
2023-11-08T06:22:33.350Z,97.52
2023-11-08T06:25:40.025Z,94.54
2023-11-08T06:28:46.090Z,95.27
2023-11-08T06:31:52.760Z,98.62
2023-11-08T06:35:02.227Z,109.79
2023-11-08T06:38:08.884Z,97.71
2023-11-08T06:41:17.335Z,86.57
2023-11-08T06:44:23.960Z,85.39
2023-11-08T06:47:30.362Z,84.91
2023-11-08T06:50:39.661Z,85.81
2023-11-08T06:53:45.640Z,84.68
2023-11-08T06:56:52.236Z,85.21
2023-11-08T06:59:58.190Z,81.45
2023-11-08T07:03:04.853Z,83.79
2023-11-08T07:06:15.667Z,79.12
2023-11-08T07:09:23.468Z,76.30
2023-11-08T07:12:29.342Z,76.27
2023-11-08T07:15:36.063Z,78.85
2023-11-08T07:18:42.001Z,76.80
2023-11-08T07:21:51.399Z,78.15
2023-11-08T07:24:57.954Z,77.46
2023-11-08T07:28:06.621Z,67.74
2023-11-08T07:31:12.690Z,94.31
2023-11-08T07:34:19.273Z,108.88
2023-11-08T07:37:27.777Z,92.18
2023-11-08T07:40:34.579Z,104.43
2023-11-08T07:43:40.393Z,107.81
2023-11-08T07:46:46.880Z,106.74
2023-11-08T07:49:53.132Z,105.97
2023-11-08T07:53:02.490Z,113.58
2023-11-08T07:56:09.539Z,124.44
2023-11-08T07:59:18.245Z,125.97
2023-11-08T08:02:24.135Z,135.93
2023-11-08T08:05:30.788Z,146.93
2023-11-08T08:08:39.217Z,144.16
2023-11-08T08:11:48.649Z,151.31
2023-11-08T08:14:54.444Z,158.76
2023-11-08T08:18:02.800Z,161.21
2023-11-08T08:21:09.747Z,155.86
2023-11-08T08:24:21.631Z,142.96
2023-11-08T08:27:28.625Z,135.30
2023-11-08T08:30:35.936Z,135.89
2023-11-08T08:33:41.797Z,128.73
2023-11-08T08:36:48.506Z,124.92
2023-11-08T08:39:57.418Z,122.56
2023-11-08T08:43:06.666Z,121.24
2023-11-08T08:46:12.639Z,112.07
2023-11-08T08:49:21.705Z,110.13
2023-11-08T08:52:29.207Z,108.07
2023-11-08T08:55:41.383Z,95.13
2023-11-08T08:58:48.455Z,97.31
2023-11-08T09:01:55.083Z,98.15
2023-11-08T09:05:00.951Z,99.92
2023-11-08T09:08:08.012Z,111.76
2023-11-08T09:11:16.583Z,105.34
2023-11-08T09:14:24.425Z,123.59
2023-11-08T09:17:30.317Z,128.22
2023-11-08T09:20:38.079Z,124.98
2023-11-08T09:23:43.988Z,120.79
2023-11-08T09:26:53.230Z,110.19
2023-11-08T09:29:59.252Z,105.13
2023-11-08T09:33:06.207Z,99.74
2023-11-08T09:36:13.496Z,100.13
2023-11-08T09:39:21.576Z,95.38
2023-11-08T09:42:33.059Z,89.04
2023-11-08T09:45:41.601Z,86.63
2023-11-08T09:48:49.078Z,86.54
2023-11-08T09:51:56.027Z,79.02
2023-11-08T09:55:02.947Z,83.92
2023-11-08T09:58:18.371Z,84.01
2023-11-08T10:01:27.680Z,79.30
2023-11-08T10:04:42.242Z,77.56
2023-11-08T10:07:51.277Z,71.15
2023-11-08T10:11:03.324Z,62.57
2023-11-08T10:14:12.146Z,64.07
2023-11-08T10:17:32.336Z,56.89
2023-11-08T10:21:02.572Z,53.57
2023-11-08T10:24:16.624Z,50.32
2023-11-08T10:27:22.697Z,48.91
2023-11-08T10:30:40.370Z,46.93
2023-11-08T10:34:01.387Z,48.71
2023-11-08T10:37:08.297Z,50.05
2023-11-08T10:40:16.919Z,49.50
2023-11-08T10:43:26.760Z,47.51
2023-11-08T10:46:36.451Z,44.47
2023-11-08T10:49:47.673Z,41.86
2023-11-08T10:52:53.867Z,39.64
2023-11-08T10:56:03.449Z,37.76
2023-11-08T10:59:12.320Z,36.27
2023-11-08T11:02:30.148Z,34.35
2023-11-08T11:05:44.148Z,34.09
2023-11-08T11:08:55.625Z,40.00
2023-11-08T11:12:16.788Z,38.29
2023-11-08T11:15:35.449Z,36.64
2023-11-08T11:18:50.678Z,85.16
2023-11-08T11:22:04.245Z,72.22
2023-11-08T11:25:11.564Z,40.55
2023-11-08T11:28:18.375Z,41.87
2023-11-08T11:31:39.296Z,53.25
2023-11-08T11:34:49.201Z,139.26
2023-11-08T11:38:27.909Z,371.78
2023-11-08T11:41:34.900Z,292.99
2023-11-08T11:44:44.106Z,345.08
2023-11-08T11:47:56.525Z,300.61
2023-11-08T11:51:05.878Z,250.44
2023-11-08T11:54:13.096Z,189.14
2023-11-08T11:57:21.330Z,308.89
2023-11-08T12:00:29.131Z,88.15
2023-11-08T12:03:35.410Z,76.66
2023-11-08T12:06:45.061Z,48.61
2023-11-08T12:09:52.311Z,54.88
2023-11-08T12:13:03.494Z,34.26
2023-11-08T12:16:10.220Z,31.58
2023-11-08T12:19:19.241Z,32.65
2023-11-08T12:22:27.848Z,31.85
2023-11-08T12:25:36.263Z,32.68
2023-11-08T12:28:43.696Z,30.10
2023-11-08T12:31:51.852Z,34.54
2023-11-08T12:34:58.013Z,45.46
2023-11-08T12:38:07.562Z,84.61
2023-11-08T12:41:14.577Z,86.40
2023-11-08T12:44:22.932Z,130.30
2023-11-08T12:47:31.217Z,61.36
2023-11-08T12:50:39.513Z,64.04
2023-11-08T12:53:53.394Z,71.70
2023-11-08T12:57:02.960Z,80.43
2023-11-08T13:00:12.582Z,143.90
2023-11-08T13:03:21.729Z,102.69
2023-11-08T13:06:32.250Z,70.18
2023-11-08T13:09:42.619Z,57.82
2023-11-08T13:12:48.514Z,55.79
2023-11-08T13:15:55.773Z,61.48
2023-11-08T13:19:01.853Z,58.30
2023-11-08T13:22:09.240Z,57.20
2023-11-08T13:25:18.185Z,68.89
2023-11-08T13:28:25.508Z,84.73
2023-11-08T13:31:31.293Z,277.24
2023-11-08T13:34:38.271Z,208.80
2023-11-08T13:37:44.098Z,107.16
2023-11-08T13:40:53.865Z,70.82
2023-11-08T13:44:00.086Z,66.31
2023-11-08T13:47:06.896Z,53.33
2023-11-08T13:50:15.253Z,56.99
2023-11-08T13:53:22.177Z,56.01
2023-11-08T13:56:32.040Z,60.43
2023-11-08T13:59:40.051Z,69.84
2023-11-08T14:03:00.507Z,76.17
2023-11-08T14:06:09.884Z,80.81
2023-11-08T14:09:18.296Z,83.91
2023-11-08T14:12:27.757Z,83.68
2023-11-08T14:15:35.457Z,99.06
2023-11-08T14:18:42.451Z,125.83
2023-11-08T14:21:48.655Z,100.14
2023-11-08T14:24:56.314Z,105.64
2023-11-08T14:28:04.782Z,109.55
2023-11-08T14:31:11.598Z,113.44
2023-11-08T14:34:17.518Z,113.00
2023-11-08T14:37:25.696Z,111.03
2023-11-08T14:40:32.740Z,107.45
2023-11-08T14:43:42.672Z,109.46
2023-11-08T14:46:48.539Z,110.92
2023-11-08T14:49:58.658Z,112.01
2023-11-08T14:53:04.607Z,119.39
2023-11-08T14:56:12.510Z,141.66
2023-11-08T14:59:23.982Z,147.46
2023-11-08T15:02:32.973Z,148.26
2023-11-08T15:05:39.802Z,151.17
2023-11-08T15:09:51.078Z,156.27
2023-11-08T15:12:12.904Z,160.07
2023-11-08T15:15:22.394Z,154.84
2023-11-08T15:18:29.251Z,149.38
2023-11-08T15:21:36.005Z,148.92
2023-11-08T15:24:44.075Z,200.93
2023-11-08T15:27:50.722Z,253.10
2023-11-08T15:30:59.332Z,232.64
2023-11-08T15:34:06.095Z,182.28
2023-11-08T15:37:17.279Z,181.75
2023-11-08T15:40:23.993Z,195.25
2023-11-08T15:43:29.821Z,201.44
2023-11-08T15:46:39.172Z,172.08
2023-11-08T15:49:45.344Z,148.72
2023-11-08T15:52:52.036Z,168.58
2023-11-08T15:55:57.933Z,191.17
2023-11-08T15:59:07.407Z,209.85
2023-11-08T16:02:15.875Z,197.14
2023-11-08T16:05:24.747Z,208.27
2023-11-08T16:08:31.213Z,220.24
2023-11-08T16:11:37.843Z,237.56
2023-11-08T16:14:43.766Z,248.16
2023-11-08T16:17:53.559Z,161.28
2023-11-08T16:20:59.554Z,155.58
2023-11-08T16:24:08.378Z,251.23
2023-11-08T16:27:14.340Z,174.94
2023-11-08T16:30:59.157Z,175.67
2023-11-08T16:33:53.153Z,140.58
2023-11-08T16:37:06.308Z,144.57
2023-11-08T16:40:14.916Z,132.05
2023-11-08T16:44:19.070Z,126.56
2023-11-08T16:47:32.613Z,171.79
2023-11-08T16:50:41.968Z,132.46
2023-11-08T16:53:47.869Z,233.68
2023-11-08T16:56:54.678Z,142.30
2023-11-08T17:00:00.515Z,154.58
2023-11-08T17:03:10.604Z,315.54
2023-11-08T17:06:19.245Z,247.65
2023-11-08T17:09:27.219Z,202.26
2023-11-08T17:12:33.849Z,179.05
2023-11-08T17:15:41.211Z,130.46
2023-11-08T17:18:47.298Z,138.33
2023-11-08T17:21:56.891Z,133.45
2023-11-08T17:25:04.479Z,120.93
2023-11-08T17:28:11.299Z,125.03
2023-11-08T17:31:18.089Z,120.47
2023-11-08T17:34:27.631Z,122.24
2023-11-08T17:37:36.620Z,121.22
2023-11-08T17:40:52.387Z,117.42
2023-11-08T17:43:58.333Z,117.33
2023-11-08T17:47:07.018Z,112.75
2023-11-08T17:50:16.691Z,113.80
2023-11-08T17:53:25.998Z,117.82
2023-11-08T17:56:32.027Z,129.40
2023-11-08T17:59:41.472Z,121.28
2023-11-08T18:02:47.760Z,116.56
2023-11-08T18:05:59.008Z,120.87
2023-11-08T18:09:11.628Z,125.53
2023-11-08T18:12:18.416Z,124.45
2023-11-08T18:15:26.842Z,125.86
2023-11-08T18:18:33.695Z,120.25
2023-11-08T18:21:42.993Z,122.15
2023-11-08T18:24:52.179Z,135.10
2023-11-08T18:28:00.417Z,135.74
2023-11-08T18:31:07.618Z,130.28
2023-11-08T18:34:13.976Z,131.73
2023-11-08T18:37:58.483Z,129.99
2023-11-08T18:41:11.025Z,130.35
2023-11-08T18:44:19.798Z,133.22
2023-11-08T18:47:26.256Z,139.41
2023-11-08T18:50:35.038Z,144.74
2023-11-08T18:53:41.669Z,135.13
2023-11-08T18:56:56.414Z,151.71
2023-11-08T19:00:03.036Z,134.60
2023-11-08T19:03:10.268Z,132.62
2023-11-08T19:06:16.280Z,160.98
2023-11-08T19:09:22.914Z,166.62
2023-11-08T19:12:31.967Z,151.17
2023-11-08T19:15:41.227Z,142.58
2023-11-08T19:18:47.420Z,151.55
2023-11-08T19:22:01.480Z,145.84
2023-11-08T19:25:08.145Z,150.48
2023-11-08T19:28:17.648Z,145.62
2023-11-08T19:31:23.899Z,151.05
2023-11-08T19:34:30.868Z,149.33
2023-11-08T19:37:37.042Z,163.04
2023-11-08T19:40:46.478Z,177.45
2023-11-08T19:43:54.911Z,178.20
2023-11-08T19:47:01.835Z,182.24
2023-11-08T19:50:09.112Z,182.91
2023-11-08T19:53:15.988Z,181.76
2023-11-08T19:56:27.838Z,196.69
2023-11-08T19:59:37.453Z,205.07
2023-11-08T20:02:43.465Z,201.77
2023-11-08T20:05:50.748Z,192.69
2023-11-08T20:08:56.666Z,188.76
2023-11-08T20:12:03.533Z,185.01
2023-11-08T20:15:13.001Z,179.77
2023-11-08T20:18:19.718Z,173.19
2023-11-08T20:21:27.572Z,165.18
2023-11-08T20:24:34.780Z,157.98
2023-11-08T20:27:43.616Z,152.41
2023-11-08T20:30:52.927Z,157.18
2023-11-08T20:33:59.208Z,151.39
2023-11-08T20:37:06.073Z,138.83
2023-11-08T20:40:14.998Z,140.35
2023-11-08T20:43:22.119Z,146.96
2023-11-08T20:46:30.656Z,160.00
2023-11-08T20:49:37.401Z,168.37
2023-11-08T20:52:44.906Z,158.74
2023-11-08T20:55:51.833Z,150.56
2023-11-08T20:58:57.652Z,141.25
2023-11-08T21:02:07.641Z,143.21
2023-11-08T21:05:15.165Z,143.69
2023-11-08T21:08:22.040Z,137.90
2023-11-08T21:11:27.792Z,133.06
2023-11-08T21:14:34.555Z,140.42
2023-11-08T21:17:43.523Z,151.90
2023-11-08T21:20:50.275Z,151.11
2023-11-08T21:23:56.190Z,132.31
2023-11-08T21:27:02.983Z,131.67
2023-11-08T21:30:14.120Z,133.49
2023-11-08T21:33:23.888Z,137.71
2023-11-08T21:36:29.748Z,124.66
2023-11-08T21:39:36.901Z,129.05
2023-11-08T21:42:43.109Z,132.20
2023-11-08T21:45:51.588Z,134.32
2023-11-08T21:49:00.260Z,136.97
2023-11-08T21:52:08.068Z,131.88
2023-11-08T21:55:15.202Z,127.28
2023-11-08T21:58:23.868Z,127.81
2023-11-08T22:01:29.725Z,130.36
2023-11-08T22:04:39.887Z,118.31
2023-11-08T22:07:46.044Z,113.01
2023-11-08T22:10:52.762Z,112.08
2023-11-08T22:13:58.968Z,106.00
2023-11-08T22:17:05.607Z,100.86
2023-11-08T22:20:17.674Z,104.05
2023-11-08T22:23:24.399Z,102.10
2023-11-08T22:26:30.688Z,103.98
2023-11-08T22:29:37.300Z,104.92
2023-11-08T22:32:44.957Z,101.03
2023-11-08T22:35:54.255Z,102.18
2023-11-08T22:39:02.206Z,98.85
2023-11-08T22:42:10.098Z,104.25
2023-11-08T22:45:16.168Z,108.94
2023-11-08T22:48:22.845Z,99.25
2023-11-08T22:51:34.417Z,101.49
2023-11-08T22:54:41.230Z,96.78
2023-11-08T22:57:47.016Z,92.26
2023-11-08T23:00:53.941Z,89.78
2023-11-08T23:03:59.882Z,93.99
2023-11-08T23:07:10.370Z,101.52
2023-11-08T23:10:16.354Z,98.08
2023-11-08T23:13:23.252Z,88.31
2023-11-08T23:16:29.662Z,90.11
2023-11-08T23:19:36.516Z,84.50
2023-11-08T23:22:45.191Z,87.91
2023-11-08T23:25:52.273Z,85.37
2023-11-08T23:28:58.141Z,84.63
2023-11-08T23:32:04.836Z,81.53
2023-11-08T23:35:13.965Z,80.04
2023-11-08T23:38:24.626Z,83.56
2023-11-08T23:41:30.457Z,85.62
2023-11-08T23:44:37.914Z,80.49
2023-11-08T23:47:44.926Z,87.12
2023-11-08T23:50:51.921Z,87.91
2023-11-08T23:54:00.384Z,86.36
2023-11-08T23:57:07.926Z,91.95
